KLOZ/LOZ METAR and TAF weather

Enter ICAO airport designator
Station Type Date Time Source
KLOZ METAR 2019/08/25 19:53 UTC NOAA

KLOZ 251953Z AUTO 21004KT 10SM -RA BKN027 BKN048 OVC075 24/20 A3005 RMK AO2 RAB42 SLP165 P0000 T02390200


Station Type Date Time Source
KLOZ Decoded METAR 2019/08/25 19:53 UTC NOAA

Station name not available
Aug 25, 2019 - 03:53 PM EDT / 2019.08.25 1953 UTC
Wind: from the SSW (210 degrees) at 5 MPH (4 KT):0
Visibility: 10 mile(s):0
Sky conditions: overcast
Weather: light rain
Precipitation last hour: A trace
Temperature: 75.0 F (23.9 C)
Dew Point: 68.0 F (20.0 C)
Relative Humidity: 78%
Pressure (altimeter): 30.05 in. Hg (1017 hPa)
ob: KLOZ 251953Z AUTO 21004KT 10SM -RA BKN027 BKN048 OVC075 24/20 A3005 RMK AO2 RAB42 SLP165 P0000 T02390200
cycle: 20

Station Type Date Time Source
KLOZ TAF 2019/08/25 19:04 UTC NOAA

TAF
AMD KLOZ 251902Z 2519/2618 VRB03KT P6SM VCSH SCT030 OVC050
TEMPO 2519/2523 BKN025 BKN050
FM260300 VRB03KT P6SM VCSH SCT050 OVC080
FM261100 VRB04KT P6SM VCSH OVC030
FM261300 VRB05KT 5SM BR SCT009 OVC018
FM261700 VRB05KT P6SM SHRA SCT008 OVC030

Example: see airport list